UIA28Y RCSS-RCYU
Flight info
| Callsign | UIA28Y |
|---|---|
| Flight time | 0h 37m |
| Altitude | 14000 |
| Route | YILAN1A YILAN B591 FOPIN |
| Aircraft | AT76/M-SDFGIRY/S |
Departure
| Time | 2026-05-04 09:44 |
|---|---|
| Airport | Taipei Songshan International Airport (RCSS) |
Arrival
| Time | 2026-05-04 10:21 |
|---|---|
| Airport | Hualien Chiashan Airport (RCYU) |
| Time | Latitude | Longitude | Altitude | Speed | Heading |
|---|---|---|---|---|---|
| 2026-05-04 09:28 | 25.06692 | 121.54874 | 24 ft | 0 kts | 178° |
| 2026-05-04 09:37 | 25.06706 | 121.54873 | 28 ft | 1 kts | 177° |
| 2026-05-04 09:37 | 25.06715 | 121.54873 | 29 ft | 1 kts | 177° |
| 2026-05-04 09:38 | 25.06725 | 121.54872 | 27 ft | 1 kts | 176° |
| 2026-05-04 09:38 | 25.06734 | 121.54871 | 25 ft | 1 kts | 199° |
| 2026-05-04 09:38 | 25.06742 | 121.54876 | 26 ft | 1 kts | 251° |
| 2026-05-04 09:38 | 25.06743 | 121.54879 | 26 ft | 0 kts | 266° |
| 2026-05-04 09:39 | 25.06743 | 121.54877 | 26 ft | 4 kts | 265° |
| 2026-05-04 09:39 | 25.06740 | 121.54789 | 24 ft | 16 kts | 269° |
| 2026-05-04 09:40 | 25.06711 | 121.54743 | 24 ft | 4 kts | 168° |
| 2026-05-04 09:40 | 25.06683 | 121.54748 | 24 ft | 4 kts | 173° |
| 2026-05-04 09:40 | 25.06641 | 121.54747 | 24 ft | 8 kts | 186° |
| 2026-05-04 09:40 | 25.06592 | 121.54716 | 15 ft | 10 kts | 249° |
| 2026-05-04 09:41 | 25.06627 | 121.54632 | 26 ft | 14 kts | 304° |
| 2026-05-04 09:42 | 25.06986 | 121.53997 | 25 ft | 4 kts | 70° |
| 2026-05-04 09:43 | 25.07000 | 121.54085 | 26 ft | 25 kts | 92° |
| 2026-05-04 09:43 | 25.06990 | 121.54429 | 22 ft | 72 kts | 92° |
| 2026-05-04 09:43 | 25.06969 | 121.55169 | 35 ft | 116 kts | 90° |
| 2026-05-04 09:43 | 25.06975 | 121.56083 | 442 ft | 120 kts | 87° |
| 2026-05-04 09:44 | 25.07102 | 121.57033 | 841 ft | 128 kts | 79° |
| 2026-05-04 09:44 | 25.07228 | 121.58019 | 1121 ft | 133 kts | 89° |
| 2026-05-04 09:44 | 25.07074 | 121.59072 | 1275 ft | 148 kts | 97° |
| 2026-05-04 09:46 | 25.04494 | 121.66775 | 3595 ft | 163 kts | 125° |
| 2026-05-04 09:46 | 25.03787 | 121.67752 | 3768 ft | 166 kts | 126° |
| 2026-05-04 09:46 | 25.03091 | 121.68790 | 4034 ft | 166 kts | 123° |
| 2026-05-04 09:47 | 25.02414 | 121.69801 | 4485 ft | 163 kts | 125° |
| 2026-05-04 09:47 | 25.01718 | 121.70817 | 4809 ft | 165 kts | 126° |
| 2026-05-04 09:49 | 24.94324 | 121.74317 | 6723 ft | 181 kts | 171° |
| 2026-05-04 09:49 | 24.93083 | 121.74628 | 6965 ft | 185 kts | 169° |
| 2026-05-04 09:49 | 24.91812 | 121.74912 | 7230 ft | 186 kts | 172° |
| 2026-05-04 09:51 | 24.83978 | 121.76775 | 9804 ft | 197 kts | 174° |
| 2026-05-04 09:51 | 24.82644 | 121.77104 | 10166 ft | 195 kts | 177° |
| 2026-05-04 09:51 | 24.81309 | 121.77436 | 10486 ft | 198 kts | 175° |
| 2026-05-04 09:51 | 24.79967 | 121.77789 | 10716 ft | 199 kts | 176° |
| 2026-05-04 09:52 | 24.78616 | 121.78117 | 10907 ft | 199 kts | 177° |
| 2026-05-04 09:52 | 24.77276 | 121.78428 | 11098 ft | 200 kts | 177° |
| 2026-05-04 09:52 | 24.75909 | 121.78750 | 11297 ft | 201 kts | 177° |
| 2026-05-04 09:52 | 24.74540 | 121.79076 | 11485 ft | 202 kts | 177° |
| 2026-05-04 09:53 | 24.73177 | 121.79507 | 11668 ft | 210 kts | 165° |
| 2026-05-04 09:53 | 24.71873 | 121.80276 | 11834 ft | 214 kts | 158° |
| 2026-05-04 09:53 | 24.70587 | 121.81114 | 12071 ft | 215 kts | 156° |
| 2026-05-04 09:53 | 24.69306 | 121.81978 | 12336 ft | 216 kts | 156° |
| 2026-05-04 09:54 | 24.68010 | 121.82825 | 12583 ft | 217 kts | 158° |
| 2026-05-04 09:54 | 24.66697 | 121.83646 | 12763 ft | 218 kts | 160° |
| 2026-05-04 09:54 | 24.65368 | 121.84455 | 12934 ft | 219 kts | 160° |
| 2026-05-04 09:54 | 24.64037 | 121.85270 | 13116 ft | 220 kts | 160° |
| 2026-05-04 09:55 | 24.62697 | 121.86088 | 13323 ft | 221 kts | 160° |
| 2026-05-04 09:55 | 24.61355 | 121.86910 | 13520 ft | 221 kts | 160° |
| 2026-05-04 09:55 | 24.60007 | 121.87734 | 13728 ft | 222 kts | 160° |
| 2026-05-04 09:55 | 24.58653 | 121.88560 | 13945 ft | 223 kts | 161° |
| 2026-05-04 09:56 | 24.57284 | 121.89392 | 14043 ft | 228 kts | 161° |
| 2026-05-04 09:56 | 24.55871 | 121.90246 | 14074 ft | 234 kts | 161° |
| 2026-05-04 09:56 | 24.54419 | 121.91113 | 14091 ft | 240 kts | 160° |
| 2026-05-04 09:56 | 24.52938 | 121.91994 | 14112 ft | 245 kts | 161° |
| 2026-05-04 09:57 | 24.51425 | 121.92903 | 14125 ft | 250 kts | 160° |
| 2026-05-04 09:57 | 24.49906 | 121.93812 | 14123 ft | 254 kts | 159° |
| 2026-05-04 09:57 | 24.48359 | 121.94780 | 14124 ft | 257 kts | 159° |
| 2026-05-04 09:57 | 24.46797 | 121.95753 | 14124 ft | 259 kts | 159° |
| 2026-05-04 09:58 | 24.45209 | 121.96730 | 14123 ft | 261 kts | 159° |
| 2026-05-04 09:58 | 24.43635 | 121.97691 | 14124 ft | 263 kts | 159° |
| 2026-05-04 09:58 | 24.42032 | 121.98668 | 14122 ft | 264 kts | 159° |
| 2026-05-04 10:00 | 24.30572 | 122.01549 | 14119 ft | 240 kts | 198° |
| 2026-05-04 10:00 | 24.28926 | 122.01213 | 14122 ft | 241 kts | 198° |
| 2026-05-04 10:02 | 24.17614 | 121.97958 | 14117 ft | 236 kts | 216° |
| 2026-05-04 10:04 | 24.06688 | 121.93509 | 14109 ft | 241 kts | 204° |
| 2026-05-04 10:04 | 24.05083 | 121.92988 | 14112 ft | 240 kts | 204° |
| 2026-05-04 10:04 | 24.03477 | 121.92482 | 14113 ft | 240 kts | 204° |
| 2026-05-04 10:04 | 24.01878 | 121.91982 | 14112 ft | 239 kts | 204° |
| 2026-05-04 10:05 | 24.00278 | 121.91476 | 14116 ft | 239 kts | 204° |
| 2026-05-04 10:05 | 23.98689 | 121.90960 | 14116 ft | 238 kts | 204° |
| 2026-05-04 10:05 | 23.97097 | 121.90445 | 14117 ft | 238 kts | 204° |
| 2026-05-04 10:05 | 23.95508 | 121.89929 | 14117 ft | 238 kts | 204° |
| 2026-05-04 10:06 | 23.93914 | 121.89412 | 14112 ft | 238 kts | 204° |
| 2026-05-04 10:06 | 23.92318 | 121.88896 | 14107 ft | 238 kts | 204° |
| 2026-05-04 10:06 | 23.90725 | 121.88382 | 14106 ft | 238 kts | 204° |
| 2026-05-04 10:08 | 23.81153 | 121.85283 | 14105 ft | 242 kts | 204° |
| 2026-05-04 10:08 | 23.79517 | 121.84743 | 13819 ft | 253 kts | 204° |
| 2026-05-04 10:08 | 23.77802 | 121.84153 | 13241 ft | 260 kts | 204° |
| 2026-05-04 10:08 | 23.76086 | 121.83565 | 12885 ft | 256 kts | 203° |
| 2026-05-04 10:09 | 23.74396 | 121.83018 | 12576 ft | 252 kts | 202° |
| 2026-05-04 10:09 | 23.72714 | 121.82471 | 12262 ft | 252 kts | 202° |
| 2026-05-04 10:09 | 23.71035 | 121.81925 | 11956 ft | 252 kts | 202° |
| 2026-05-04 10:09 | 23.69378 | 121.81388 | 11665 ft | 251 kts | 202° |
| 2026-05-04 10:10 | 23.67697 | 121.80843 | 11371 ft | 251 kts | 202° |
| 2026-05-04 10:10 | 23.66021 | 121.80294 | 11075 ft | 251 kts | 202° |
| 2026-05-04 10:10 | 23.64350 | 121.79754 | 10782 ft | 248 kts | 203° |
| 2026-05-04 10:10 | 23.62965 | 121.78763 | 10491 ft | 236 kts | 236° |
| 2026-05-04 10:11 | 23.62432 | 121.77129 | 10210 ft | 231 kts | 268° |
| 2026-05-04 10:11 | 23.62597 | 121.75382 | 9925 ft | 233 kts | 280° |
| 2026-05-04 10:11 | 23.63005 | 121.73661 | 9623 ft | 235 kts | 284° |
| 2026-05-04 10:11 | 23.63478 | 121.71950 | 9316 ft | 236 kts | 285° |
| 2026-05-04 10:12 | 23.63953 | 121.70233 | 9005 ft | 237 kts | 285° |
| 2026-05-04 10:12 | 23.64400 | 121.68503 | 8704 ft | 237 kts | 284° |
| 2026-05-04 10:12 | 23.64824 | 121.66760 | 8400 ft | 238 kts | 283° |
| 2026-05-04 10:12 | 23.65244 | 121.65013 | 8109 ft | 238 kts | 284° |
| 2026-05-04 10:13 | 23.65667 | 121.63265 | 7822 ft | 239 kts | 283° |
| 2026-05-04 10:13 | 23.66098 | 121.61507 | 7535 ft | 238 kts | 284° |
| 2026-05-04 10:13 | 23.66863 | 121.59966 | 7235 ft | 240 kts | 314° |
| 2026-05-04 10:13 | 23.68262 | 121.58957 | 6946 ft | 244 kts | 330° |
| 2026-05-04 10:14 | 23.69811 | 121.58202 | 6642 ft | 244 kts | 335° |
| 2026-05-04 10:14 | 23.71385 | 121.57515 | 6325 ft | 243 kts | 336° |
| 2026-05-04 10:16 | 23.81715 | 121.52599 | 4202 ft | 217 kts | 337° |
| 2026-05-04 10:16 | 23.83117 | 121.52092 | 3939 ft | 210 kts | 358° |
| 2026-05-04 10:16 | 23.84472 | 121.52436 | 3623 ft | 190 kts | 19° |
| 2026-05-04 10:16 | 23.85681 | 121.52879 | 3390 ft | 180 kts | 19° |
| 2026-05-04 10:17 | 23.86876 | 121.53337 | 3148 ft | 185 kts | 22° |
| 2026-05-04 10:17 | 23.88037 | 121.53931 | 2912 ft | 180 kts | 30° |
| 2026-05-04 10:19 | 23.94815 | 121.57622 | 1442 ft | 153 kts | 27° |
| 2026-05-04 10:19 | 23.96005 | 121.58247 | 1206 ft | 134 kts | 27° |
| 2026-05-04 10:19 | 23.96546 | 121.58542 | 1089 ft | 127 kts | 28° |
| 2026-05-04 10:19 | 23.97341 | 121.58975 | 925 ft | 130 kts | 27° |
| 2026-05-04 10:20 | 23.98151 | 121.59420 | 758 ft | 131 kts | 28° |
| 2026-05-04 10:20 | 23.98963 | 121.59870 | 562 ft | 129 kts | 27° |
| 2026-05-04 10:20 | 23.99757 | 121.60283 | 422 ft | 127 kts | 26° |
| 2026-05-04 10:20 | 24.00547 | 121.60711 | 302 ft | 126 kts | 27° |
| 2026-05-04 10:21 | 24.01330 | 121.61130 | 132 ft | 123 kts | 28° |
| 2026-05-04 10:21 | 24.02051 | 121.61521 | 65 ft | 105 kts | 27° |
| 2026-05-04 10:21 | 24.02520 | 121.61772 | 63 ft | 46 kts | 25° |
| 2026-05-04 10:21 | 24.02747 | 121.61890 | 64 ft | 29 kts | 23° |
| 2026-05-04 10:22 | 24.02960 | 121.61953 | 64 ft | 10 kts | 304° |
| 2026-05-04 10:22 | 24.02987 | 121.61880 | 66 ft | 11 kts | 295° |
| 2026-05-04 10:22 | 24.02972 | 121.61813 | 64 ft | 11 kts | 213° |
| 2026-05-04 10:23 | 24.02855 | 121.61748 | 66 ft | 20 kts | 207° |
| 2026-05-04 10:23 | 24.02736 | 121.61684 | 65 ft | 18 kts | 204° |
| 2026-05-04 10:25 | 24.02616 | 121.61517 | 56 ft | 0 kts | 290° |